Time;durP1;ratioP1;P1;durP2;ratioP2;P2;SDS_P1;SDS_P2;PMS_P1;PMS_P2;Temp;Humidity;BMP_temperature;BMP_pressure;BME280_temperature;BME280_humidity;BME280_pressure;Samples;Min_cycle;Max_cycle;Signal;HPM_P1;HPM_P2
2024/02/24 00:02:56;;;;;;;8.52;4.95;;;;;;;;;;6245119;28;20056;-77
2024/02/24 00:05:58;;;;;;;8.75;5.75;;;;;;;;;;6266885;28;20040;-77
2024/02/24 00:09:01;;;;;;;6.88;4.53;;;;;;;;;;6274564;28;20057;-76
2024/02/24 00:12:04;;;;;;;11.05;4.88;;;;;;;;;;6267974;28;20110;-77
2024/02/24 00:15:08;;;;;;;7.13;5.35;;;;;;;;;;6246291;28;20111;-77
2024/02/24 00:18:12;;;;;;;9.85;5.97;;;;;;;;;;6264267;28;20048;-77
2024/02/24 00:21:17;;;;;;;6.45;4.68;;;;;;;;;;6230930;28;20053;-77
2024/02/24 00:24:19;;;;;;;8.82;4.65;;;;;;;;;;6231150;28;20041;-77
2024/02/24 00:27:21;;;;;;;9.27;4.95;;;;;;;;;;6281508;28;20248;-77
2024/02/24 00:30:24;;;;;;;7.30;3.92;;;;;;;;;;6262912;28;20048;-76
2024/02/24 00:33:27;;;;;;;8.07;5.20;;;;;;;;;;6268025;28;20049;-77
2024/02/24 00:36:29;;;;;;;7.07;3.88;;;;;;;;;;6235102;28;20056;-77
2024/02/24 00:39:34;;;;;;;7.05;5.20;;;;;;;;;;6219287;28;20139;-77
2024/02/24 00:42:37;;;;;;;11.05;5.30;;;;;;;;;;6265959;28;20059;-78
2024/02/24 00:45:41;;;;;;;7.68;5.15;;;;;;;;;;6250365;28;20126;-77
2024/02/24 00:48:45;;;;;;;11.50;5.53;;;;;;;;;;6254348;28;20130;-77
2024/02/24 00:51:48;;;;;;;8.05;5.55;;;;;;;;;;6243742;28;20148;-77
2024/02/24 00:54:50;;;;;;;8.82;5.18;;;;;;;;;;6284922;28;20114;-76
2024/02/24 00:58:02;;;;;;;8.70;5.50;;;;;;;;;;6239375;28;20049;-77
2024/02/24 01:01:05;;;;;;;8.10;5.03;;;;;;;;;;6252683;28;20066;-78
2024/02/24 01:04:07;;;;;;;10.18;5.70;;;;;;;;;;6234350;28;20073;-78
2024/02/24 01:07:12;;;;;;;13.90;5.28;;;;;;;;;;6233503;28;20056;-76
2024/02/24 01:10:14;;;;;;;8.63;5.28;;;;;;;;;;6266745;28;20040;-77
2024/02/24 01:13:17;;;;;;;10.40;5.63;;;;;;;;;;6249685;28;20052;-77
2024/02/24 01:16:23;;;;;;;10.70;4.95;;;;;;;;;;6262561;28;20045;-78
2024/02/24 01:19:25;;;;;;;8.10;5.18;;;;;;;;;;6241316;28;20053;-78
2024/02/24 01:22:31;;;;;;;9.20;4.95;;;;;;;;;;6247967;28;20544;-77
2024/02/24 01:25:33;;;;;;;9.40;5.53;;;;;;;;;;6227551;28;20218;-77
2024/02/24 01:28:36;;;;;;;9.57;5.07;;;;;;;;;;6239917;28;20044;-78
2024/02/24 01:31:39;;;;;;;7.40;4.85;;;;;;;;;;6245089;28;20100;-78
2024/02/24 01:34:41;;;;;;;11.80;4.93;;;;;;;;;;6215277;28;20048;-78
2024/02/24 01:37:44;;;;;;;7.93;4.28;;;;;;;;;;6243646;28;20138;-78
2024/02/24 01:40:46;;;;;;;9.50;4.25;;;;;;;;;;6248908;28;20055;-78
2024/02/24 01:43:48;;;;;;;7.88;4.65;;;;;;;;;;6266000;28;20900;-78
2024/02/24 01:46:50;;;;;;;8.32;5.25;;;;;;;;;;6228412;28;20122;-78
2024/02/24 01:49:54;;;;;;;7.82;4.28;;;;;;;;;;6251367;28;20055;-77
2024/02/24 01:52:57;;;;;;;7.22;5.30;;;;;;;;;;6227052;28;20150;-78
2024/02/24 01:56:00;;;;;;;8.60;4.47;;;;;;;;;;6265553;28;20166;-76
2024/02/24 01:59:03;;;;;;;9.00;5.22;;;;;;;;;;6248126;28;20045;-77
2024/02/24 02:02:05;;;;;;;6.53;4.38;;;;;;;;;;6243754;28;20041;-77
2024/02/24 02:05:08;;;;;;;7.18;4.57;;;;;;;;;;6243638;28;20040;-76
2024/02/24 02:08:10;;;;;;;8.20;4.82;;;;;;;;;;6249580;28;20131;-76
2024/02/24 02:11:13;;;;;;;9.07;5.05;;;;;;;;;;6223829;28;20584;-77
2024/02/24 02:14:15;;;;;;;7.30;4.55;;;;;;;;;;6248390;28;20044;-76
2024/02/24 02:17:19;;;;;;;8.45;4.97;;;;;;;;;;6238580;28;20076;-76
2024/02/24 02:20:21;;;;;;;8.52;5.25;;;;;;;;;;6249532;28;20106;-76
2024/02/24 02:23:23;;;;;;;7.78;3.90;;;;;;;;;;6246164;28;20044;-76
2024/02/24 02:26:25;;;;;;;5.82;3.90;;;;;;;;;;6271801;28;20040;-76
2024/02/24 02:29:28;;;;;;;6.50;3.28;;;;;;;;;;6248345;28;20167;-77
2024/02/24 02:32:34;;;;;;;;;;;;;;;;;;6249732;28;20051;-77
2024/02/24 02:35:38;;;;;;;6.60;3.42;;;;;;;;;;6227094;28;19966;-77
2024/02/24 02:38:40;;;;;;;5.85;3.28;;;;;;;;;;6260025;28;20049;-76
2024/02/24 02:41:42;;;;;;;6.85;4.10;;;;;;;;;;6243136;28;20648;-77
2024/02/24 02:44:45;;;;;;;6.80;3.80;;;;;;;;;;6259777;28;20076;-77
2024/02/24 02:47:48;;;;;;;6.82;3.67;;;;;;;;;;6255774;28;20060;-77
2024/02/24 02:50:50;;;;;;;6.68;4.07;;;;;;;;;;6238681;28;20534;-77
2024/02/24 02:53:53;;;;;;;7.63;3.83;;;;;;;;;;6258837;28;21398;-76
2024/02/24 02:56:55;;;;;;;6.88;3.22;;;;;;;;;;6257902;28;20045;-76
2024/02/24 02:59:57;;;;;;;7.43;3.30;;;;;;;;;;6259247;28;20506;-76
2024/02/24 03:03:01;;;;;;;5.45;2.97;;;;;;;;;;6238221;28;20101;-77
2024/02/24 03:06:04;;;;;;;8.88;3.97;;;;;;;;;;6267792;28;20045;-77
2024/02/24 03:09:07;;;;;;;7.00;4.40;;;;;;;;;;6247737;28;20052;-76
2024/02/24 03:12:11;;;;;;;6.22;4.13;;;;;;;;;;6226228;28;20048;-77
2024/02/24 03:15:13;;;;;;;6.80;3.92;;;;;;;;;;6256032;28;20049;-77
2024/02/24 03:18:17;;;;;;;6.03;4.07;;;;;;;;;;6281726;28;20048;-77
2024/02/24 03:21:27;;;;;;;7.40;4.18;;;;;;;;;;6280340;28;20118;-77
2024/02/24 03:24:29;;;;;;;5.97;4.03;;;;;;;;;;6262880;28;20747;-77
2024/02/24 03:27:32;;;;;;;7.45;4.25;;;;;;;;;;6258529;28;20053;-76
2024/02/24 03:30:37;;;;;;;5.15;2.55;;;;;;;;;;6238949;28;20647;-77
2024/02/24 03:33:39;;;;;;;5.85;3.95;;;;;;;;;;6279034;28;20588;-77
2024/02/24 03:36:43;;;;;;;7.15;4.05;;;;;;;;;;6248595;28;20058;-77
2024/02/24 03:39:45;;;;;;;6.25;3.20;;;;;;;;;;6279444;28;20055;-78
2024/02/24 03:42:47;;;;;;;6.32;3.35;;;;;;;;;;6239519;28;20045;-77
2024/02/24 03:45:50;;;;;;;6.10;3.75;;;;;;;;;;6270281;28;20101;-78
2024/02/24 03:48:52;;;;;;;6.22;3.35;;;;;;;;;;6241760;28;20067;-77
2024/02/24 03:51:56;;;;;;;5.93;3.13;;;;;;;;;;6261364;28;20441;-76
2024/02/24 03:54:58;;;;;;;6.35;3.08;;;;;;;;;;6237925;28;20076;-77
2024/02/24 03:58:04;;;;;;;5.97;3.65;;;;;;;;;;6250607;28;20041;-77
2024/02/24 04:01:06;;;;;;;6.43;4.05;;;;;;;;;;6246881;28;20087;-77
2024/02/24 04:04:09;;;;;;;6.40;3.72;;;;;;;;;;6237415;28;20061;-77
2024/02/24 04:07:13;;;;;;;5.60;3.00;;;;;;;;;;6268299;28;20048;-77
2024/02/24 04:10:16;;;;;;;7.13;4.40;;;;;;;;;;6262545;28;20432;-76
2024/02/24 04:13:22;;;;;;;6.35;4.05;;;;;;;;;;6248871;28;20045;-77
2024/02/24 04:16:25;;;;;;;7.32;3.88;;;;;;;;;;6272484;28;20543;-75
2024/02/24 04:19:27;;;;;;;7.43;5.32;;;;;;;;;;6258605;28;20095;-77
2024/02/24 04:22:29;;;;;;;7.88;4.28;;;;;;;;;;6276446;28;20044;-77
2024/02/24 04:25:31;;;;;;;6.80;3.58;;;;;;;;;;6287083;28;20544;-77
2024/02/24 04:28:35;;;;;;;6.25;3.13;;;;;;;;;;6261790;28;20045;-77
2024/02/24 04:31:38;;;;;;;5.75;3.17;;;;;;;;;;6277040;28;20045;-78
2024/02/24 04:34:43;;;;;;;6.05;4.88;;;;;;;;;;6273643;28;20064;-77
2024/02/24 04:37:45;;;;;;;6.82;4.18;;;;;;;;;;6246675;28;20052;-76
2024/02/24 04:40:48;;;;;;;6.75;4.03;;;;;;;;;;6270674;28;20040;-77
2024/02/24 04:43:51;;;;;;;5.10;3.40;;;;;;;;;;6271788;28;20037;-76
2024/02/24 04:46:53;;;;;;;6.30;3.28;;;;;;;;;;6255672;28;20530;-77
2024/02/24 04:49:55;;;;;;;8.98;2.92;;;;;;;;;;6260801;28;20082;-76
2024/02/24 04:52:58;;;;;;;5.25;2.38;;;;;;;;;;6272043;28;20525;-75
2024/02/24 04:56:00;;;;;;;6.82;2.92;;;;;;;;;;6258486;28;20664;-74
2024/02/24 04:59:03;;;;;;;9.07;4.55;;;;;;;;;;6269403;28;20044;-75
2024/02/24 05:02:05;;;;;;;6.10;3.60;;;;;;;;;;6259461;28;20051;-74
2024/02/24 05:05:11;;;;;;;6.18;3.10;;;;;;;;;;6268979;28;20091;-74
2024/02/24 05:08:14;;;;;;;11.27;4.43;;;;;;;;;;6268153;28;20048;-77
2024/02/24 05:11:17;;;;;;;6.32;3.92;;;;;;;;;;6248106;28;20068;-76
2024/02/24 05:14:20;;;;;;;19.88;14.18;;;;;;;;;;6254390;28;20041;-76
2024/02/24 05:17:23;;;;;;;10.60;9.38;;;;;;;;;;6255430;28;20052;-76
2024/02/24 05:20:26;;;;;;;6.10;4.35;;;;;;;;;;6263594;28;20045;-75
2024/02/24 05:23:28;;;;;;;8.25;3.42;;;;;;;;;;6263784;28;20056;-77
2024/02/24 05:26:30;;;;;;;5.15;3.00;;;;;;;;;;6258457;28;20044;-77
2024/02/24 05:29:33;;;;;;;5.30;3.10;;;;;;;;;;6242661;28;20121;-77
2024/02/24 05:32:36;;;;;;;6.00;2.95;;;;;;;;;;6266148;28;20875;-78
2024/02/24 05:35:38;;;;;;;6.40;3.53;;;;;;;;;;6246857;28;20048;-77
2024/02/24 05:38:41;;;;;;;7.00;4.28;;;;;;;;;;6259531;28;20064;-75
2024/02/24 05:41:43;;;;;;;5.63;3.95;;;;;;;;;;6271882;28;20049;-77
2024/02/24 05:44:47;;;;;;;6.82;5.07;;;;;;;;;;6281901;28;20133;-76
2024/02/24 05:47:49;;;;;;;5.63;3.25;;;;;;;;;;6264922;28;20048;-75
2024/02/24 05:50:53;;;;;;;6.85;3.72;;;;;;;;;;6247225;28;20078;-75
2024/02/24 05:53:55;;;;;;;6.70;3.58;;;;;;;;;;6272297;28;20048;-75
2024/02/24 05:56:59;;;;;;;10.13;5.00;;;;;;;;;;6260539;28;20052;-75
2024/02/24 06:00:04;;;;;;;6.43;4.38;;;;;;;;;;6265150;28;20048;-75
2024/02/24 06:03:13;;;;;;;7.70;5.50;;;;;;;;;;6277708;28;20145;-76
2024/02/24 06:06:16;;;;;;;9.80;3.95;;;;;;;;;;6258749;28;20144;-75
2024/02/24 06:09:20;;;;;;;7.70;4.13;;;;;;;;;;6233126;28;20183;-75
2024/02/24 06:12:22;;;;;;;10.80;6.80;;;;;;;;;;6240192;28;20049;-75
2024/02/24 06:15:24;;;;;;;6.45;3.75;;;;;;;;;;6250081;28;20051;-75
2024/02/24 06:18:26;;;;;;;6.50;2.70;;;;;;;;;;6246696;28;20225;-75
2024/02/24 06:21:30;;;;;;;7.07;3.75;;;;;;;;;;6239296;28;20049;-75
2024/02/24 06:24:33;;;;;;;10.15;5.07;;;;;;;;;;6231136;28;20059;-76
2024/02/24 06:27:36;;;;;;;8.80;4.07;;;;;;;;;;6260695;28;20489;-74
2024/02/24 06:30:38;;;;;;;10.45;4.93;;;;;;;;;;6241099;28;20240;-75
2024/02/24 06:33:41;;;;;;;11.63;7.10;;;;;;;;;;6258374;28;20728;-74
2024/02/24 06:36:45;;;;;;;10.25;6.25;;;;;;;;;;6223677;28;20044;-74
2024/02/24 06:39:47;;;;;;;14.52;9.80;;;;;;;;;;6264927;28;20620;-75
2024/02/24 06:42:50;;;;;;;9.77;7.18;;;;;;;;;;6237939;28;20076;-75
2024/02/24 06:45:52;;;;;;;10.90;5.43;;;;;;;;;;6238412;28;20029;-77
2024/02/24 06:48:54;;;;;;;5.50;3.50;;;;;;;;;;6244917;28;20059;-77
2024/02/24 06:51:57;;;;;;;5.60;3.40;;;;;;;;;;6272508;28;20052;-76
2024/02/24 06:55:00;;;;;;;5.93;3.88;;;;;;;;;;6265406;28;20045;-77
2024/02/24 06:58:02;;;;;;;7.35;4.38;;;;;;;;;;6237902;28;20084;-75
2024/02/24 07:01:04;;;;;;;5.22;3.90;;;;;;;;;;6241145;28;20055;-75
2024/02/24 07:04:07;;;;;;;8.88;3.95;;;;;;;;;;6254339;28;20056;-76
2024/02/24 07:07:09;;;;;;;7.32;3.92;;;;;;;;;;6273670;28;20082;-76
2024/02/24 07:10:12;;;;;;;6.88;3.55;;;;;;;;;;6285972;28;20047;-76
2024/02/24 07:13:16;;;;;;;6.70;3.90;;;;;;;;;;6248676;28;20055;-75
2024/02/24 07:16:19;;;;;;;7.10;4.97;;;;;;;;;;6258786;28;20080;-74
2024/02/24 07:19:21;;;;;;;5.05;2.45;;;;;;;;;;6268787;28;20910;-76
2024/02/24 07:22:23;;;;;;;7.10;4.47;;;;;;;;;;6286323;28;20179;-77
2024/02/24 07:25:25;;;;;;;6.47;4.53;;;;;;;;;;6278327;28;20048;-76
2024/02/24 07:28:28;;;;;;;11.70;6.78;;;;;;;;;;6243820;28;20457;-76
2024/02/24 07:31:38;;;;;;;13.00;7.97;;;;;;;;;;6237382;28;20049;-75
2024/02/24 07:34:42;;;;;;;10.20;5.32;;;;;;;;;;6285589;28;20062;-76
2024/02/24 07:37:46;;;;;;;9.95;7.13;;;;;;;;;;6272260;28;20174;-76
2024/02/24 07:40:48;;;;;;;6.70;4.80;;;;;;;;;;6248599;28;20053;-76
2024/02/24 07:43:52;;;;;;;7.10;4.68;;;;;;;;;;6278828;28;20142;-76
2024/02/24 07:46:54;;;;;;;8.13;3.25;;;;;;;;;;6258068;28;20040;-76
2024/02/24 07:49:57;;;;;;;5.88;3.85;;;;;;;;;;6255818;28;20048;-77
2024/02/24 07:52:59;;;;;;;6.13;2.58;;;;;;;;;;6250593;28;20049;-75
2024/02/24 07:56:02;;;;;;;5.20;3.00;;;;;;;;;;6246718;28;20048;-76
2024/02/24 07:59:04;;;;;;;6.00;3.67;;;;;;;;;;6278111;28;20045;-75
2024/02/24 08:02:07;;;;;;;8.85;5.75;;;;;;;;;;6290151;28;20033;-76
2024/02/24 08:05:10;;;;;;;9.45;4.22;;;;;;;;;;6285199;28;20056;-76
2024/02/24 08:08:14;;;;;;;9.10;4.72;;;;;;;;;;6265746;28;20213;-75
2024/02/24 08:11:17;;;;;;;6.35;3.88;;;;;;;;;;6276698;28;20051;-76
2024/02/24 08:14:19;;;;;;;5.20;2.80;;;;;;;;;;6242953;28;20083;-77
2024/02/24 08:17:22;;;;;;;7.18;3.17;;;;;;;;;;6244717;28;20048;-77
2024/02/24 08:20:24;;;;;;;10.18;7.03;;;;;;;;;;6256672;28;20054;-77
2024/02/24 08:23:26;;;;;;;10.57;5.05;;;;;;;;;;6280270;28;20045;-78
2024/02/24 08:26:29;;;;;;;14.85;8.75;;;;;;;;;;6264161;28;20056;-77
2024/02/24 08:29:33;;;;;;;8.60;4.05;;;;;;;;;;6250496;28;20127;-76
2024/02/24 08:32:35;;;;;;;4.85;2.33;;;;;;;;;;6267967;28;20074;-78
2024/02/24 08:35:38;;;;;;;5.90;3.33;;;;;;;;;;6261709;28;20044;-78
2024/02/24 08:38:40;;;;;;;7.38;4.82;;;;;;;;;;6267389;28;20044;-77
2024/02/24 08:41:43;;;;;;;5.47;2.80;;;;;;;;;;6276702;28;20048;-78
2024/02/24 08:44:47;;;;;;;10.80;7.20;;;;;;;;;;6250177;28;20067;-77
2024/02/24 08:47:49;;;;;;;6.80;3.30;;;;;;;;;;6288009;28;20147;-78
2024/02/24 08:50:53;;;;;;;6.95;3.85;;;;;;;;;;6274480;28;20045;-77
2024/02/24 08:53:55;;;;;;;7.10;4.43;;;;;;;;;;6265528;28;20127;-77
2024/02/24 08:56:59;;;;;;;3.83;2.17;;;;;;;;;;6270688;28;20044;-77
2024/02/24 09:00:03;;;;;;;5.55;2.83;;;;;;;;;;6264402;28;20044;-77
2024/02/24 09:03:06;;;;;;;6.05;3.50;;;;;;;;;;6266501;28;20170;-78
2024/02/24 09:06:09;;;;;;;5.55;2.65;;;;;;;;;;6283582;28;20044;-78
2024/02/24 09:09:16;;;;;;;4.90;3.10;;;;;;;;;;6268195;28;20753;-78
2024/02/24 09:12:19;;;;;;;5.75;2.95;;;;;;;;;;6214405;28;20055;-78
2024/02/24 09:15:21;;;;;;;3.90;1.60;;;;;;;;;;6274766;28;20044;-77
2024/02/24 09:18:24;;;;;;;5.93;2.08;;;;;;;;;;6266073;28;20093;-77
2024/02/24 09:21:28;;;;;;;5.82;3.28;;;;;;;;;;6262219;28;20635;-78
2024/02/24 09:24:30;;;;;;;6.95;3.70;;;;;;;;;;6272542;28;20053;-77
2024/02/24 09:27:33;;;;;;;5.65;3.15;;;;;;;;;;6273507;28;20385;-78
2024/02/24 09:30:38;;;;;;;5.18;2.95;;;;;;;;;;6235098;28;20059;-78
2024/02/24 09:33:40;;;;;;;6.15;2.53;;;;;;;;;;6235022;28;20058;-76
2024/02/24 09:36:43;;;;;;;5.32;2.22;;;;;;;;;;6280400;28;20044;-77
2024/02/24 09:39:47;;;;;;;3.97;1.83;;;;;;;;;;6274893;28;20134;-78
2024/02/24 09:42:50;;;;;;;3.97;1.60;;;;;;;;;;6264491;28;20052;-78
2024/02/24 09:45:54;;;;;;;3.70;1.67;;;;;;;;;;6254004;28;20916;-80
2024/02/24 09:48:57;;;;;;;4.40;1.33;;;;;;;;;;6267433;28;20051;-76
2024/02/24 09:51:59;;;;;;;3.55;1.40;;;;;;;;;;6251926;28;20051;-76
2024/02/24 09:55:03;;;;;;;4.10;1.60;;;;;;;;;;6249468;28;20048;-76
2024/02/24 09:58:10;;;;;;;2.65;1.33;;;;;;;;;;6261913;28;20048;-75
2024/02/24 10:01:13;;;;;;;2.55;1.27;;;;;;;;;;6247858;28;20453;-75
2024/02/24 10:04:16;;;;;;;2.65;1.00;;;;;;;;;;6280285;28;20040;-76
2024/02/24 10:07:19;;;;;;;5.45;1.50;;;;;;;;;;6260936;28;20837;-76
2024/02/24 10:10:26;;;;;;;2.67;1.20;;;;;;;;;;6274306;28;20528;-76
2024/02/24 10:13:31;;;;;;;1.80;0.95;;;;;;;;;;6237117;28;20138;-75
2024/02/24 10:16:35;;;;;;;2.25;0.82;;;;;;;;;;6243316;28;20048;-76
2024/02/24 10:19:37;;;;;;;4.75;1.58;;;;;;;;;;6261891;28;20344;-75
2024/02/24 10:22:42;;;;;;;2.70;1.10;;;;;;;;;;6243276;28;20048;-75
2024/02/24 10:25:46;;;;;;;2.55;1.23;;;;;;;;;;6283147;28;20051;-76
2024/02/24 10:28:50;;;;;;;2.65;1.27;;;;;;;;;;6281424;28;20043;-77
2024/02/24 10:31:54;;;;;;;4.45;2.25;;;;;;;;;;6260896;28;20072;-77
2024/02/24 10:34:58;;;;;;;2.78;1.17;;;;;;;;;;6286709;28;20436;-77
2024/02/24 10:38:00;;;;;;;3.35;1.33;;;;;;;;;;6264129;28;20177;-78
2024/02/24 10:41:23;;;;;;;2.65;0.85;;;;;;;;;;6281142;28;20043;-78
2024/02/24 10:44:30;;;;;;;4.15;1.33;;;;;;;;;;6272033;28;20036;-79
2024/02/24 10:47:36;;;;;;;4.97;0.90;;;;;;;;;;6255247;28;20041;-78
2024/02/24 10:50:39;;;;;;;5.82;1.58;;;;;;;;;;6259160;28;20087;-78
2024/02/24 10:53:51;;;;;;;5.55;2.53;;;;;;;;;;6240323;28;20110;-78
2024/02/24 10:56:57;;;;;;;2.17;1.17;;;;;;;;;;6261134;28;20080;-78
2024/02/24 11:00:31;;;;;;;2.63;0.85;;;;;;;;;;6224234;28;20045;-78
2024/02/24 11:03:34;;;;;;;2.30;1.30;;;;;;;;;;6244682;28;20544;-77
2024/02/24 11:06:49;;;;;;;3.17;1.35;;;;;;;;;;6224976;28;20605;-77
2024/02/24 11:09:53;;;;;;;3.85;1.23;;;;;;;;;;6271382;28;20060;-77
2024/02/24 11:12:56;;;;;;;2.88;1.48;;;;;;;;;;6227861;28;20049;-79
2024/02/24 11:16:00;;;;;;;4.80;1.55;;;;;;;;;;6245446;28;20060;-78
2024/02/24 11:19:05;;;;;;;2.00;1.10;;;;;;;;;;6284649;28;20725;-78
2024/02/24 11:22:11;;;;;;;;;;;;;;;;;;6249180;28;20068;-77
2024/02/24 11:25:17;;;;;;;2.92;1.58;;;;;;;;;;6287856;28;20015;-77
2024/02/24 11:28:24;;;;;;;2.78;1.30;;;;;;;;;;6282071;28;20054;-77
2024/02/24 11:31:29;;;;;;;2.90;1.45;;;;;;;;;;6263388;28;20097;-78
2024/02/24 11:34:35;;;;;;;3.13;1.50;;;;;;;;;;6283380;28;20081;-78
2024/02/24 11:37:40;;;;;;;2.30;0.90;;;;;;;;;;6250534;28;20060;-78
2024/02/24 11:40:46;;;;;;;3.45;1.13;;;;;;;;;;6265691;28;20072;-77
2024/02/24 11:43:51;;;;;;;2.25;1.30;;;;;;;;;;6230660;28;20588;-78
2024/02/24 11:46:57;;;;;;;3.72;1.33;;;;;;;;;;6241205;28;20075;-77
2024/02/24 11:50:03;;;;;;;2.25;0.70;;;;;;;;;;6256145;28;20047;-78
2024/02/24 11:53:06;;;;;;;3.40;1.70;;;;;;;;;;6266260;28;20090;-79
2024/02/24 11:56:10;;;;;;;3.22;1.30;;;;;;;;;;6263435;28;20041;-79
2024/02/24 11:59:14;;;;;;;5.40;1.23;;;;;;;;;;6265179;28;20044;-78
2024/02/24 12:02:16;;;;;;;3.00;1.30;;;;;;;;;;6247077;28;20037;-78
2024/02/24 12:05:19;;;;;;;3.17;1.48;;;;;;;;;;6263592;28;20135;-78
2024/02/24 12:08:22;;;;;;;3.65;2.05;;;;;;;;;;6259928;28;20048;-78
2024/02/24 12:11:27;;;;;;;2.67;1.35;;;;;;;;;;6280553;28;20090;-78
2024/02/24 12:14:30;;;;;;;6.43;2.50;;;;;;;;;;6238960;28;20040;-78
2024/02/24 12:17:40;;;;;;;11.30;2.80;;;;;;;;;;6227711;28;20582;-80
2024/02/24 12:20:48;;;;;;;7.95;1.77;;;;;;;;;;6259862;28;20048;-78
2024/02/24 12:23:51;;;;;;;4.05;1.30;;;;;;;;;;6235447;28;20557;-78
2024/02/24 12:27:00;;;;;;;2.25;1.30;;;;;;;;;;6244956;28;20151;-78
2024/02/24 12:30:03;;;;;;;2.13;1.05;;;;;;;;;;6258542;28;20134;-77
2024/02/24 12:33:11;;;;;;;1.70;1.17;;;;;;;;;;6280935;28;20055;-78
2024/02/24 12:36:17;;;;;;;3.55;1.92;;;;;;;;;;6246226;28;20033;-77
2024/02/24 12:39:20;;;;;;;4.25;1.30;;;;;;;;;;6283270;28;20808;-79
2024/02/24 12:42:24;;;;;;;4.57;1.15;;;;;;;;;;6254411;28;20045;-79
2024/02/24 12:45:26;;;;;;;7.63;3.13;;;;;;;;;;6279468;28;20584;-79
2024/02/24 12:48:29;;;;;;;4.13;1.73;;;;;;;;;;6246123;28;20048;-78
2024/02/24 12:51:34;;;;;;;5.47;2.17;;;;;;;;;;6245746;28;20582;-79
2024/02/24 12:54:37;;;;;;;5.32;2.25;;;;;;;;;;6265026;28;20049;-78
2024/02/24 12:57:40;;;;;;;3.72;1.88;;;;;;;;;;6254303;28;20048;-79
2024/02/24 13:00:42;;;;;;;2.65;1.63;;;;;;;;;;6228103;28;20312;-79
2024/02/24 13:03:45;;;;;;;2.80;1.08;;;;;;;;;;6261511;28;20186;-78
2024/02/24 13:06:49;;;;;;;;;;;;;;;;;;6262510;28;20049;-79
2024/02/24 13:09:51;;;;;;;8.98;3.22;;;;;;;;;;6263966;28;19935;-79
2024/02/24 13:12:53;;;;;;;2.92;1.50;;;;;;;;;;6280852;28;20053;-79
2024/02/24 13:15:55;;;;;;;5.72;2.58;;;;;;;;;;6279118;28;20777;-78
2024/02/24 13:18:57;;;;;;;3.33;2.28;;;;;;;;;;6260143;28;20166;-78
2024/02/24 13:21:59;;;;;;;4.40;1.63;;;;;;;;;;6262992;28;20053;-78
2024/02/24 13:25:03;;;;;;;3.97;2.97;;;;;;;;;;6272395;28;20052;-79
2024/02/24 13:28:07;;;;;;;6.53;3.28;;;;;;;;;;6248032;28;20464;-79
2024/02/24 13:31:09;;;;;;;21.10;14.85;;;;;;;;;;6276210;28;20048;-79
2024/02/24 13:34:12;;;;;;;3.33;1.58;;;;;;;;;;6258349;28;20049;-79
2024/02/24 13:37:14;;;;;;;3.08;1.30;;;;;;;;;;6236394;28;20048;-78
2024/02/24 13:40:21;;;;;;;5.57;2.10;;;;;;;;;;6276779;28;20624;-78
2024/02/24 13:43:24;;;;;;;13.88;7.60;;;;;;;;;;6246224;28;20044;-79
2024/02/24 13:46:26;;;;;;;3.35;2.03;;;;;;;;;;6228652;28;20037;-79
2024/02/24 13:49:29;;;;;;;2.42;1.50;;;;;;;;;;6261316;28;20399;-79
2024/02/24 13:52:32;;;;;;;2.85;1.83;;;;;;;;;;6301718;28;20494;-76
2024/02/24 13:55:34;;;;;;;2.42;1.23;;;;;;;;;;6242654;28;20183;-76
2024/02/24 13:58:37;;;;;;;4.80;1.63;;;;;;;;;;6219448;28;20514;-77
2024/02/24 14:01:39;;;;;;;5.10;1.70;;;;;;;;;;6261783;28;20063;-77
2024/02/24 14:04:41;;;;;;;3.42;1.13;;;;;;;;;;6277476;28;20059;-77
2024/02/24 14:07:44;;;;;;;4.70;3.03;;;;;;;;;;6262481;28;20549;-77
2024/02/24 14:10:47;;;;;;;4.97;2.88;;;;;;;;;;6242126;28;20117;-76
2024/02/24 14:13:50;;;;;;;4.88;2.08;;;;;;;;;;6254337;28;20085;-76
2024/02/24 14:16:54;;;;;;;4.28;1.40;;;;;;;;;;6260388;28;20756;-75
2024/02/24 14:19:56;;;;;;;3.50;1.33;;;;;;;;;;6242010;28;20048;-77
2024/02/24 14:23:01;;;;;;;6.35;1.80;;;;;;;;;;6262099;28;20617;-77
2024/02/24 14:26:04;;;;;;;3.40;1.75;;;;;;;;;;6259993;28;20064;-78
2024/02/24 14:29:06;;;;;;;4.15;2.47;;;;;;;;;;6258614;28;20056;-77
2024/02/24 14:32:08;;;;;;;4.55;2.60;;;;;;;;;;6271008;28;20049;-77
2024/02/24 14:35:18;;;;;;;3.05;1.80;;;;;;;;;;6230537;28;20049;-77
2024/02/24 14:38:21;;;;;;;5.80;3.00;;;;;;;;;;6215563;28;20051;-77
2024/02/24 14:41:25;;;;;;;3.97;2.30;;;;;;;;;;6262000;28;20049;-76
2024/02/24 14:44:27;;;;;;;3.72;1.88;;;;;;;;;;6261782;28;20045;-76
2024/02/24 14:47:30;;;;;;;5.32;2.70;;;;;;;;;;6274798;28;20032;-76
2024/02/24 14:50:35;;;;;;;6.35;3.50;;;;;;;;;;6277166;28;20521;-76
2024/02/24 14:53:38;;;;;;;13.35;7.05;;;;;;;;;;6239744;28;20087;-76
2024/02/24 14:56:42;;;;;;;16.60;5.95;;;;;;;;;;6259490;28;20835;-77
2024/02/24 14:59:45;;;;;;;12.95;4.80;;;;;;;;;;6273576;28;20074;-77
2024/02/24 15:02:56;;;;;;;15.20;6.72;;;;;;;;;;6272121;28;20048;-77
2024/02/24 15:06:13;;;;;;;14.25;6.63;;;;;;;;;;6265221;28;20410;-77
2024/02/24 15:09:16;;;;;;;19.30;7.90;;;;;;;;;;6256668;28;20068;-79
2024/02/24 15:12:19;;;;;;;11.95;5.25;;;;;;;;;;6281811;28;20067;-75
2024/02/24 15:15:21;;;;;;;12.50;5.65;;;;;;;;;;6256864;28;20072;-77
2024/02/24 15:18:23;;;;;;;17.77;6.60;;;;;;;;;;6258440;28;20373;-77
2024/02/24 15:21:26;;;;;;;9.93;5.68;;;;;;;;;;6247062;28;20909;-76
2024/02/24 15:24:28;;;;;;;13.32;7.10;;;;;;;;;;6278722;28;20731;-77
2024/02/24 15:27:30;;;;;;;22.83;10.98;;;;;;;;;;6240173;28;20082;-77
2024/02/24 15:30:32;;;;;;;30.05;16.65;;;;;;;;;;6278013;28;20522;-77
2024/02/24 15:33:37;;;;;;;10.65;6.07;;;;;;;;;;6250573;28;20516;-75
2024/02/24 15:36:42;;;;;;;6.03;3.78;;;;;;;;;;6258868;28;20045;-78
2024/02/24 15:39:44;;;;;;;8.40;4.30;;;;;;;;;;6279809;28;20044;-77
2024/02/24 15:42:47;;;;;;;7.80;3.50;;;;;;;;;;6253038;28;20139;-78
2024/02/24 15:45:50;;;;;;;7.30;2.70;;;;;;;;;;6257142;28;20045;-76
2024/02/24 15:48:54;;;;;;;8.23;3.08;;;;;;;;;;6259963;28;20046;-77
2024/02/24 15:51:57;;;;;;;6.40;3.40;;;;;;;;;;6275175;28;20047;-77
2024/02/24 15:55:00;;;;;;;12.10;5.65;;;;;;;;;;6272533;28;20068;-76
2024/02/24 15:58:03;;;;;;;8.77;6.03;;;;;;;;;;6263016;28;20737;-77
2024/02/24 16:01:07;;;;;;;10.10;5.85;;;;;;;;;;6251339;28;20063;-78
2024/02/24 16:04:10;;;;;;;12.00;6.30;;;;;;;;;;6264294;28;20056;-78
2024/02/24 16:07:12;;;;;;;12.10;6.57;;;;;;;;;;6279993;28;20037;-76
2024/02/24 16:10:16;;;;;;;8.75;5.70;;;;;;;;;;6230289;28;20049;-77
2024/02/24 16:13:21;;;;;;;11.73;6.13;;;;;;;;;;6280412;28;20083;-77
2024/02/24 16:16:23;;;;;;;13.70;5.65;;;;;;;;;;6277927;28;20040;-77
2024/02/24 16:19:26;;;;;;;10.02;5.35;;;;;;;;;;6280557;28;20049;-77
2024/02/24 16:22:28;;;;;;;9.88;4.07;;;;;;;;;;6264865;28;20045;-77
2024/02/24 16:25:31;;;;;;;10.75;4.00;;;;;;;;;;6250338;28;20040;-76
2024/02/24 16:28:33;;;;;;;9.18;4.57;;;;;;;;;;6280959;28;20051;-77
2024/02/24 16:31:37;;;;;;;11.45;6.82;;;;;;;;;;6259973;28;20049;-76
2024/02/24 16:34:39;;;;;;;14.80;7.03;;;;;;;;;;6265783;28;20056;-76
2024/02/24 16:37:41;;;;;;;22.92;11.63;;;;;;;;;;6238747;28;20751;-76
2024/02/24 16:40:45;;;;;;;28.48;16.05;;;;;;;;;;6287842;28;20059;-77
2024/02/24 16:43:49;;;;;;;22.17;11.73;;;;;;;;;;6242572;28;20052;-79
2024/02/24 16:46:51;;;;;;;16.33;8.15;;;;;;;;;;6254533;28;20041;-78
2024/02/24 16:49:55;;;;;;;10.20;5.60;;;;;;;;;;6274006;28;20518;-76
2024/02/24 16:52:58;;;;;;;8.18;3.55;;;;;;;;;;6247342;28;20101;-79
2024/02/24 16:56:03;;;;;;;9.18;2.50;;;;;;;;;;6285483;28;20812;-77
2024/02/24 16:59:06;;;;;;;7.90;4.40;;;;;;;;;;6263811;28;20075;-78
2024/02/24 17:02:08;;;;;;;6.90;2.88;;;;;;;;;;6267165;28;20045;-78
2024/02/24 17:05:12;;;;;;;6.25;3.90;;;;;;;;;;6281491;28;20059;-79
2024/02/24 17:08:15;;;;;;;11.27;5.90;;;;;;;;;;6270773;28;20693;-77
2024/02/24 17:11:23;;;;;;;9.50;5.22;;;;;;;;;;6261768;28;20082;-78
2024/02/24 17:14:27;;;;;;;13.35;6.85;;;;;;;;;;6260860;28;20049;-79
2024/02/24 17:17:39;;;;;;;9.77;6.22;;;;;;;;;;6265786;28;20521;-80
2024/02/24 17:20:43;;;;;;;15.35;10.13;;;;;;;;;;6261843;28;20116;-77
2024/02/24 17:23:47;;;;;;;9.13;6.07;;;;;;;;;;6270852;28;20044;-78
2024/02/24 17:26:55;;;;;;;7.78;4.70;;;;;;;;;;6248707;28;20588;-78
2024/02/24 17:29:59;;;;;;;7.68;3.92;;;;;;;;;;6245436;28;20051;-77
2024/02/24 17:33:03;;;;;;;8.75;4.82;;;;;;;;;;6252819;28;20120;-78
2024/02/24 17:36:07;;;;;;;9.02;4.25;;;;;;;;;;6261257;28;20896;-77
2024/02/24 17:39:10;;;;;;;9.95;5.03;;;;;;;;;;6260663;28;20036;-78
2024/02/24 17:42:14;;;;;;;13.70;4.18;;;;;;;;;;6275553;28;20673;-78
2024/02/24 17:45:16;;;;;;;10.90;4.63;;;;;;;;;;6260606;28;20125;-78
2024/02/24 17:48:21;;;;;;;9.02;5.22;;;;;;;;;;6253353;28;20064;-78
2024/02/24 17:51:24;;;;;;;8.35;5.20;;;;;;;;;;6280009;28;20793;-76
2024/02/24 17:54:27;;;;;;;12.05;5.63;;;;;;;;;;6266801;28;20814;-77
2024/02/24 17:57:30;;;;;;;8.00;5.57;;;;;;;;;;6254558;28;20049;-78
2024/02/24 18:00:33;;;;;;;12.00;6.43;;;;;;;;;;6277138;28;20500;-78
2024/02/24 18:03:35;;;;;;;6.95;4.03;;;;;;;;;;6263486;28;20139;-78
2024/02/24 18:06:38;;;;;;;8.23;4.38;;;;;;;;;;6276814;28;20060;-80
2024/02/24 18:09:42;;;;;;;8.32;4.05;;;;;;;;;;6266282;28;20098;-79
2024/02/24 18:12:44;;;;;;;9.07;5.68;;;;;;;;;;6279898;28;20453;-81
2024/02/24 18:15:46;;;;;;;10.20;5.60;;;;;;;;;;6253122;28;20064;-80
2024/02/24 18:18:51;;;;;;;9.07;6.45;;;;;;;;;;6269252;28;20037;-81